Resko, Poland

12:13 PM CET on January 26, 2015 (GMT +0100)
GRCH, Lobez, zachodniopomorskie | Change Station
CLOSE
Current Station
Personal Weather Station
Location: Województwo Zachodniopomorskie, WOJEWóDZTWO ZACHODNIOPOMORSKIE
Elevation: 348 ft
Nearby Weather Stations

Elev 348 ft 53.68 °N, 15.67 °E | Updated 10 minutes ago

Light Snow Showers
Light Showers Snow Rain
35.1 °F
Feels Like 29 °F
N
7.0
Wind Variable Wind from SSW
Gusts 11.0 mph

Today
High -- | Low -- °F
--% Chance of Precip.
Yesterday
High -- | Low -- °F
Precip. -- in
7:54 AM 4:27 PM
Waxing Crescent, 42% visible
Pressure 30.12 in
Visibility 5.0 miles
Clouds Few 600 ft
Scattered Clouds 800 ft
Mostly Cloudy 1100 ft
Windchill 29 °F
Dew Point 33 °F
Humidity 90%
Rainfall 0.00 in
Snow Depth Not available.
UV 1 out of 12
Pollen Not available.
Air Quality Not available.
Flu Activity Not available.
METAR EPSC 261100Z 18007KT 8000 -SHSNRA FEW006 SCT008 BKN011TCU 01/M00 Q1020

More Conditions Fewer Conditions

Pressure 30.12 in
Visibility 5.0 miles
Clouds Few 600 ft
Scattered Clouds 800 ft
Mostly Cloudy 1100 ft
Windchill 29 °F
Dew Point 33 °F
Humidity 90%
Rainfall 0.00 in
Snow Depth Not available.
UV 1 out of 12
Pollen Not available.
Air Quality Not available.
Flu Activity Not available.
METAR EPSC 261100Z 18007KT 8000 -SHSNRA FEW006 SCT008 BKN011TCU 01/M00 Q1020

More Conditions Fewer Conditions

10-Day Weather Forecast

Almanac

Astronomy

Jan. 26, 2015 Rise Set
Actual Time
Civil Twilight
Nautical Twilight
Astronomical Twilight
Moon
Length of Visible Light
Length of Day
Tomorrow will be .
, % of the Moon is Illuminated

Today's Extremes

Country Highs Country Lows

Community

WunderPhotos

Upload Photos

1,790,172 photos uploaded!

WunderBlogs® & News

Nearby

Air Quality

  Air Quality AQ Index Pollutant
Not available.

Snow Depth

Station Depth Elevation

Earthquake Activity

City Distance Mag. Time & Date
Minimum magnitude displayed is 2.5.

Coastal Water Temperatures

Place Temperature

Nearby Weather Stations